createdAt,value
2022-10-18T00:00:57.634Z,48.55
2022-10-18T00:04:01.362Z,53.83
2022-10-18T00:07:04.498Z,54.65
2022-10-18T00:10:08.886Z,48.78
2022-10-18T00:13:12.317Z,55.22
2022-10-18T00:16:25.752Z,46.90
2022-10-18T00:19:29.476Z,50.47
2022-10-18T00:22:36.706Z,54.35
2022-10-18T00:25:39.650Z,52.77
2022-10-18T00:28:45.045Z,56.00
2022-10-18T00:31:49.393Z,51.40
2022-10-18T00:34:53.137Z,51.30
2022-10-18T00:37:56.188Z,50.78
2022-10-18T00:40:59.450Z,48.50
2022-10-18T00:44:04.794Z,51.53
2022-10-18T00:47:11.198Z,46.73
2022-10-18T00:50:14.709Z,50.47
2022-10-18T00:53:21.664Z,51.33
2022-10-18T00:56:25.172Z,47.33
2022-10-18T00:59:29.410Z,51.42
2022-10-18T01:02:33.131Z,53.72
2022-10-18T01:05:48.823Z,50.83
2022-10-18T01:09:05.635Z,51.33
2022-10-18T01:12:30.195Z,49.22
2022-10-18T01:15:33.075Z,53.40
2022-10-18T01:18:44.935Z,55.03
2022-10-18T01:21:57.735Z,51.13
2022-10-18T01:25:23.911Z,50.55
2022-10-18T01:29:00.538Z,50.80
2022-10-18T01:32:10.159Z,47.58
2022-10-18T01:35:22.624Z,51.35
2022-10-18T01:38:26.804Z,47.97
2022-10-18T01:41:30.986Z,55.58
2022-10-18T01:44:35.866Z,52.75
2022-10-18T01:47:41.506Z,55.05
2022-10-18T01:50:45.032Z,52.90
2022-10-18T01:53:48.663Z,45.15
2022-10-18T01:57:03.986Z,50.60
2022-10-18T02:00:15.066Z,46.00
2022-10-18T02:03:28.301Z,58.17
2022-10-18T02:06:38.544Z,51.95
2022-10-18T02:09:51.659Z,48.87
2022-10-18T02:12:57.390Z,46.45
2022-10-18T02:16:07.952Z,43.55
2022-10-18T02:19:22.828Z,50.15
2022-10-18T02:22:30.498Z,48.23
2022-10-18T02:25:35.653Z,45.25
2022-10-18T02:28:39.837Z,46.58
2022-10-18T02:31:50.318Z,47.53
2022-10-18T02:35:01.988Z,50.45
2022-10-18T02:38:07.617Z,43.33
2022-10-18T02:41:10.780Z,48.90
2022-10-18T02:44:13.767Z,46.63
2022-10-18T02:47:16.847Z,45.33
2022-10-18T02:50:23.515Z,39.40
2022-10-18T02:53:27.170Z,44.17
2022-10-18T02:56:30.273Z,44.10
2022-10-18T02:59:33.855Z,45.17
2022-10-18T03:02:37.641Z,39.53
2022-10-18T03:05:41.406Z,43.85
2022-10-18T03:08:44.477Z,40.08
2022-10-18T03:11:47.850Z,44.95
2022-10-18T03:14:51.069Z,44.30
2022-10-18T03:17:56.408Z,43.25
2022-10-18T03:20:59.514Z,44.53
2022-10-18T03:24:03.697Z,50.37
2022-10-18T03:27:06.817Z,37.78
2022-10-18T03:30:11.977Z,45.90
2022-10-18T03:33:18.694Z,44.28
2022-10-18T03:36:22.132Z,42.17
2022-10-18T03:39:25.291Z,43.08
2022-10-18T03:42:28.858Z,50.33
2022-10-18T03:45:32.024Z,40.33
2022-10-18T03:48:35.722Z,41.13
2022-10-18T03:51:38.799Z,48.63
2022-10-18T03:54:42.155Z,53.87
2022-10-18T03:57:45.088Z,47.28
2022-10-18T04:00:55.408Z,42.05
2022-10-18T04:03:58.804Z,41.90
2022-10-18T04:07:01.854Z,40.47
2022-10-18T04:10:05.662Z,50.25
2022-10-18T04:13:09.261Z,40.47
2022-10-18T04:16:12.958Z,43.40
2022-10-18T04:19:17.302Z,39.08
2022-10-18T04:22:21.177Z,47.22
2022-10-18T04:25:25.221Z,46.00
2022-10-18T04:28:36.094Z,44.58
2022-10-18T04:31:40.140Z,45.55
2022-10-18T04:37:51.466Z,52.45
2022-10-18T04:40:55.041Z,43.22
2022-10-18T04:43:58.222Z,43.20
2022-10-18T04:47:01.526Z,39.73
2022-10-18T04:50:05.689Z,45.72
2022-10-18T04:53:09.024Z,57.25
2022-10-18T04:56:12.450Z,52.50
2022-10-18T04:59:15.775Z,53.05
2022-10-18T05:02:43.587Z,58.20
2022-10-18T05:06:01.309Z,51.33
2022-10-18T05:09:06.824Z,52.40
2022-10-18T05:12:10.117Z,56.33
2022-10-18T05:15:21.715Z,57.17
2022-10-18T05:18:31.950Z,52.80
2022-10-18T05:21:45.655Z,53.97
2022-10-18T05:25:09.610Z,62.78
2022-10-18T05:28:38.347Z,57.77
2022-10-18T05:31:39.164Z,53.40
2022-10-18T05:34:43.026Z,57.08
2022-10-18T05:37:46.551Z,55.42
2022-10-18T05:40:54.331Z,53.35
2022-10-18T05:44:02.644Z,53.10
2022-10-18T05:47:08.113Z,60.50
2022-10-18T05:50:14.479Z,93.90
2022-10-18T05:53:35.693Z,101.15
2022-10-18T05:56:42.294Z,113.28
2022-10-18T05:59:47.579Z,74.57
2022-10-18T06:02:52.452Z,66.10
2022-10-18T06:06:06.234Z,56.75
2022-10-18T06:09:09.643Z,60.12
2022-10-18T06:12:13.419Z,70.68
2022-10-18T06:15:16.680Z,64.25
2022-10-18T06:18:20.157Z,62.30
2022-10-18T06:21:25.117Z,51.03
2022-10-18T06:24:28.768Z,45.97
2022-10-18T06:27:34.620Z,46.25
2022-10-18T06:30:38.468Z,45.20
2022-10-18T06:33:42.152Z,36.33
2022-10-18T06:36:45.562Z,42.13
2022-10-18T06:39:48.530Z,42.95
2022-10-18T06:43:00.231Z,39.87
2022-10-18T06:46:10.752Z,33.05
2022-10-18T06:49:16.734Z,34.80
2022-10-18T06:52:25.738Z,31.12
2022-10-18T06:55:31.484Z,33.72
2022-10-18T06:58:35.450Z,32.20
2022-10-18T07:01:39.082Z,30.23
2022-10-18T07:04:44.277Z,29.83
2022-10-18T07:07:47.517Z,28.35
2022-10-18T07:10:52.944Z,24.37
2022-10-18T07:14:05.062Z,25.70
2022-10-18T07:17:08.134Z,25.93
2022-10-18T07:20:13.089Z,23.87
2022-10-18T07:23:16.501Z,25.80
2022-10-18T07:26:25.739Z,33.33
2022-10-18T07:29:29.639Z,34.80
2022-10-18T07:32:32.972Z,31.67
2022-10-18T07:35:36.004Z,32.95
2022-10-18T07:38:40.055Z,31.80
2022-10-18T07:41:43.209Z,34.92
2022-10-18T07:44:46.654Z,34.90
2022-10-18T07:47:55.015Z,36.20
2022-10-18T07:51:00.986Z,37.40
2022-10-18T07:54:04.256Z,40.50
2022-10-18T07:57:07.609Z,41.97
2022-10-18T08:00:11.740Z,46.83
2022-10-18T08:03:14.674Z,36.97
2022-10-18T08:06:19.637Z,33.10
2022-10-18T08:09:22.701Z,33.03
2022-10-18T08:12:26.014Z,25.52
2022-10-18T08:15:29.130Z,22.77
2022-10-18T08:18:36.517Z,23.13
2022-10-18T08:21:39.522Z,23.35
2022-10-18T08:24:43.992Z,22.48
2022-10-18T08:27:47.149Z,28.95
2022-10-18T08:30:52.292Z,18.83
2022-10-18T08:34:00.508Z,20.53
2022-10-18T08:37:03.738Z,19.67
2022-10-18T08:40:11.994Z,21.40
2022-10-18T08:43:33.966Z,22.33
2022-10-18T08:46:41.380Z,23.10
2022-10-18T08:50:00.826Z,20.00
2022-10-18T08:53:24.154Z,18.02
2022-10-18T08:56:27.746Z,21.75
2022-10-18T08:59:41.809Z,21.00
2022-10-18T09:03:13.160Z,23.80
2022-10-18T09:06:33.032Z,20.83
2022-10-18T09:09:45.265Z,18.35
2022-10-18T09:13:04.157Z,19.80
2022-10-18T09:16:23.147Z,20.85
2022-10-18T09:19:43.714Z,26.67
2022-10-18T09:23:13.212Z,20.87
2022-10-18T09:26:22.682Z,16.85
2022-10-18T09:29:29.886Z,20.55
2022-10-18T09:32:53.658Z,18.08
2022-10-18T09:36:08.150Z,21.97
2022-10-18T09:39:23.915Z,21.50
2022-10-18T09:42:39.862Z,21.75
2022-10-18T09:45:45.892Z,18.42
2022-10-18T09:48:58.829Z,20.08
2022-10-18T09:52:08.446Z,24.53
2022-10-18T09:55:28.871Z,19.93
2022-10-18T09:58:46.395Z,16.48
2022-10-18T10:01:49.599Z,23.52
2022-10-18T10:04:57.092Z,18.95
2022-10-18T10:08:02.301Z,16.10
2022-10-18T10:11:05.779Z,16.63
2022-10-18T10:17:26.484Z,15.45
2022-10-18T10:20:50.616Z,17.10
2022-10-18T10:23:58.010Z,12.03
2022-10-18T10:27:07.222Z,13.13
2022-10-18T10:30:39.858Z,41.50
2022-10-18T10:33:47.004Z,18.98
2022-10-18T10:36:52.548Z,13.27
2022-10-18T10:40:20.536Z,15.73
2022-10-18T10:43:39.205Z,12.60
2022-10-18T10:46:43.635Z,10.10
2022-10-18T10:49:47.968Z,10.68
2022-10-18T10:52:51.677Z,14.15
2022-10-18T10:55:57.968Z,10.27
2022-10-18T10:59:09.166Z,16.13
2022-10-18T11:02:18.339Z,12.40
2022-10-18T11:05:27.211Z,12.50
2022-10-18T11:08:39.266Z,10.77
2022-10-18T11:11:55.292Z,19.60
2022-10-18T11:15:20.907Z,9.13
2022-10-18T11:18:33.689Z,10.32
2022-10-18T11:21:38.345Z,13.90
2022-10-18T11:24:41.766Z,12.80
2022-10-18T11:27:53.350Z,8.77
2022-10-18T11:31:33.635Z,9.77
2022-10-18T11:34:57.491Z,11.05
2022-10-18T11:38:24.314Z,16.95
2022-10-18T11:41:48.515Z,9.20
2022-10-18T11:45:08.480Z,9.43
2022-10-18T11:48:37.242Z,8.77
2022-10-18T11:52:07.894Z,9.80
2022-10-18T11:55:32.990Z,15.93
2022-10-18T11:59:07.693Z,9.55
2022-10-18T12:02:17.044Z,15.53
2022-10-18T12:05:23.989Z,9.77
2022-10-18T12:08:36.678Z,9.48
2022-10-18T12:11:46.890Z,9.30
2022-10-18T12:14:55.682Z,12.27
2022-10-18T12:18:03.744Z,8.07
2022-10-18T12:21:07.404Z,16.30
2022-10-18T12:24:19.950Z,16.52
2022-10-18T12:27:35.717Z,9.13
2022-10-18T12:31:17.902Z,8.63
2022-10-18T12:34:24.170Z,11.17
2022-10-18T12:37:58.685Z,7.40
2022-10-18T12:41:03.045Z,11.82
2022-10-18T12:44:18.137Z,11.05
2022-10-18T12:47:25.949Z,12.88
2022-10-18T12:50:36.887Z,15.20
2022-10-18T12:53:42.111Z,10.53
2022-10-18T12:56:46.914Z,10.23
2022-10-18T12:59:50.190Z,10.63
2022-10-18T13:03:19.173Z,9.85
2022-10-18T13:06:23.760Z,9.33
2022-10-18T13:09:37.545Z,11.70
2022-10-18T13:12:43.840Z,11.27
2022-10-18T13:15:54.020Z,8.73
2022-10-18T13:19:03.443Z,9.80
2022-10-18T13:22:33.911Z,9.97
2022-10-18T13:26:14.476Z,14.73
2022-10-18T13:29:36.393Z,11.32
2022-10-18T13:33:13.576Z,18.42
2022-10-18T13:36:21.798Z,20.23
2022-10-18T13:39:27.231Z,14.60
2022-10-18T13:42:33.385Z,16.47
2022-10-18T13:45:53.084Z,13.02
2022-10-18T13:49:20.272Z,34.28
2022-10-18T13:52:54.004Z,10.82
2022-10-18T13:56:36.115Z,11.27
2022-10-18T14:00:10.387Z,28.53
2022-10-18T14:07:03.975Z,14.15
2022-10-18T14:10:43.252Z,18.87
2022-10-18T14:13:52.424Z,14.20
2022-10-18T14:17:15.386Z,20.23
2022-10-18T14:20:29.544Z,23.70
2022-10-18T14:23:37.150Z,12.25
2022-10-18T14:26:40.548Z,15.75
2022-10-18T14:29:44.203Z,15.13
2022-10-18T14:32:54.722Z,17.73
2022-10-18T14:36:15.562Z,27.90
2022-10-18T14:39:24.196Z,39.78
2022-10-18T14:42:28.616Z,45.70
2022-10-18T14:45:31.878Z,59.53
2022-10-18T14:48:35.322Z,30.30
2022-10-18T14:51:42.422Z,46.47
2022-10-18T14:54:45.918Z,35.35
2022-10-18T14:57:49.481Z,36.72
2022-10-18T15:00:55.006Z,35.23
2022-10-18T15:04:01.028Z,50.27
2022-10-18T15:07:07.499Z,51.97
2022-10-18T15:10:18.266Z,55.92
2022-10-18T15:13:22.001Z,55.58
2022-10-18T15:16:31.059Z,36.37
2022-10-18T15:19:42.976Z,25.43
2022-10-18T15:22:47.002Z,24.85
2022-10-18T15:26:00.812Z,20.77
2022-10-18T15:29:06.828Z,21.48
2022-10-18T15:32:26.499Z,46.30
2022-10-18T15:35:29.939Z,26.33
2022-10-18T15:38:33.196Z,53.03
2022-10-18T15:41:38.701Z,46.55
2022-10-18T15:44:53.666Z,30.67
2022-10-18T15:48:06.169Z,18.40
2022-10-18T15:51:32.715Z,42.50
2022-10-18T15:54:36.314Z,22.80
2022-10-18T15:57:39.342Z,19.83
2022-10-18T16:00:46.166Z,27.37
2022-10-18T16:03:51.520Z,42.97
2022-10-18T16:06:56.110Z,47.40
2022-10-18T16:10:00.422Z,60.88
2022-10-18T16:13:03.478Z,45.35
2022-10-18T16:16:07.416Z,40.78
2022-10-18T16:19:15.745Z,34.90
2022-10-18T16:22:19.220Z,42.08
2022-10-18T16:25:22.642Z,50.45
2022-10-18T16:28:26.746Z,35.40
2022-10-18T16:31:33.488Z,43.05
2022-10-18T16:34:37.086Z,56.67
2022-10-18T16:37:41.146Z,46.40
2022-10-18T16:40:44.607Z,44.42
2022-10-18T16:43:49.586Z,40.95
2022-10-18T16:46:56.261Z,47.67
2022-10-18T16:50:05.602Z,54.43
2022-10-18T16:53:12.654Z,42.88
2022-10-18T16:56:19.034Z,46.25
2022-10-18T16:59:32.316Z,49.50
2022-10-18T17:02:35.658Z,63.30
2022-10-18T17:05:40.290Z,63.37
2022-10-18T17:08:43.788Z,55.72
2022-10-18T17:11:47.726Z,58.80
2022-10-18T17:14:51.434Z,62.60
2022-10-18T17:17:54.995Z,64.25
2022-10-18T17:21:02.962Z,73.20
2022-10-18T17:24:06.826Z,60.17
2022-10-18T17:27:12.179Z,59.58
2022-10-18T17:30:18.208Z,53.15
2022-10-18T17:33:22.786Z,62.47
2022-10-18T17:36:28.009Z,61.30
2022-10-18T17:39:33.654Z,58.13
2022-10-18T17:42:38.867Z,55.47
2022-10-18T17:45:56.449Z,70.45
2022-10-18T17:49:00.438Z,68.35
2022-10-18T17:52:06.913Z,74.93
2022-10-18T17:55:12.011Z,73.65
2022-10-18T17:58:16.229Z,71.97
2022-10-18T18:01:23.373Z,71.30
2022-10-18T18:04:28.413Z,78.22
2022-10-18T18:07:32.220Z,80.28
2022-10-18T18:10:36.663Z,77.65
2022-10-18T18:13:40.629Z,72.87
2022-10-18T18:16:47.332Z,68.25
2022-10-18T18:19:51.470Z,70.90
2022-10-18T18:22:55.913Z,75.22
2022-10-18T18:26:00.563Z,76.57
2022-10-18T18:29:05.770Z,71.25
2022-10-18T18:32:10.084Z,77.77
2022-10-18T18:35:15.529Z,78.60
2022-10-18T18:38:20.657Z,85.43
2022-10-18T18:41:27.102Z,93.78
2022-10-18T18:44:34.304Z,88.75
2022-10-18T18:47:39.366Z,80.25
2022-10-18T18:50:51.862Z,80.45
2022-10-18T18:53:55.981Z,79.57
2022-10-18T18:57:01.649Z,87.25
2022-10-18T19:00:07.507Z,82.57
2022-10-18T19:03:12.353Z,85.78
2022-10-18T19:06:20.353Z,86.78
2022-10-18T19:09:40.639Z,98.00
2022-10-18T19:13:13.974Z,94.77
2022-10-18T19:16:28.930Z,92.82
2022-10-18T19:19:33.765Z,102.80
2022-10-18T19:22:39.260Z,96.00
2022-10-18T19:25:46.241Z,89.43
2022-10-18T19:28:50.527Z,91.12
2022-10-18T19:31:58.231Z,101.95
2022-10-18T19:35:03.624Z,102.53
2022-10-18T19:38:07.724Z,90.10
2022-10-18T19:41:12.463Z,98.35
2022-10-18T19:44:17.905Z,94.95
2022-10-18T19:47:22.778Z,89.60
2022-10-18T19:50:28.606Z,96.40
2022-10-18T19:53:34.223Z,91.00
2022-10-18T19:56:43.124Z,85.07
2022-10-18T19:59:48.941Z,77.18
2022-10-18T20:02:54.305Z,77.80
2022-10-18T20:05:59.672Z,77.07
2022-10-18T20:09:03.562Z,75.97
2022-10-18T20:12:07.131Z,72.20
2022-10-18T20:15:10.813Z,86.20
2022-10-18T20:18:14.715Z,64.80
2022-10-18T20:21:18.037Z,69.05
2022-10-18T20:24:21.427Z,70.70
2022-10-18T20:27:24.825Z,71.12
2022-10-18T20:30:29.006Z,60.30
2022-10-18T20:33:35.123Z,55.33
2022-10-18T20:36:39.851Z,57.23
2022-10-18T20:39:43.380Z,55.72
2022-10-18T20:42:46.917Z,51.78
2022-10-18T20:45:56.831Z,50.65
2022-10-18T20:49:00.683Z,50.92
2022-10-18T20:52:04.086Z,44.67
2022-10-18T20:55:07.866Z,51.03
2022-10-18T20:58:12.040Z,50.93
2022-10-18T21:01:17.445Z,53.53
2022-10-18T21:04:21.161Z,41.78
2022-10-18T21:07:24.656Z,40.05
2022-10-18T21:10:30.150Z,42.83
2022-10-18T21:13:33.848Z,42.03
2022-10-18T21:16:38.558Z,39.92
2022-10-18T21:19:43.638Z,46.05
2022-10-18T21:22:46.765Z,42.28
2022-10-18T21:25:51.174Z,45.12
2022-10-18T21:29:00.694Z,46.10
2022-10-18T21:32:03.832Z,49.00
2022-10-18T21:35:08.237Z,43.55
2022-10-18T21:38:11.495Z,49.55
2022-10-18T21:41:18.143Z,41.35
2022-10-18T21:44:21.572Z,40.37
2022-10-18T21:47:24.806Z,37.72
2022-10-18T21:50:28.207Z,38.63
2022-10-18T21:53:31.545Z,36.03
2022-10-18T21:56:35.629Z,31.40
2022-10-18T21:59:38.796Z,32.15
2022-10-18T22:02:42.179Z,36.92
2022-10-18T22:05:45.439Z,35.70
2022-10-18T22:08:55.123Z,43.00
2022-10-18T22:11:59.146Z,38.50
2022-10-18T22:15:02.785Z,38.60
2022-10-18T22:18:07.086Z,42.37
2022-10-18T22:21:12.279Z,38.53
2022-10-18T22:24:15.685Z,34.17
2022-10-18T22:27:18.888Z,35.83
2022-10-18T22:30:22.655Z,37.60
2022-10-18T22:33:29.333Z,41.55
2022-10-18T22:36:34.623Z,40.78
2022-10-18T22:39:39.069Z,44.28
2022-10-18T22:42:42.449Z,43.42
2022-10-18T22:45:46.441Z,47.90
2022-10-18T22:48:50.178Z,44.97
2022-10-18T22:51:53.362Z,48.40
2022-10-18T22:54:57.040Z,41.17
2022-10-18T22:58:00.049Z,45.08
2022-10-18T23:01:09.844Z,45.70
2022-10-18T23:04:12.972Z,49.97
2022-10-18T23:07:16.412Z,43.83
2022-10-18T23:10:19.526Z,48.35
2022-10-18T23:13:24.301Z,41.17
2022-10-18T23:16:27.626Z,39.17
2022-10-18T23:19:30.994Z,41.60
2022-10-18T23:22:34.367Z,49.28
2022-10-18T23:25:38.710Z,39.13
2022-10-18T23:28:44.414Z,44.97
2022-10-18T23:31:47.805Z,42.80
2022-10-18T23:34:52.194Z,44.60
2022-10-18T23:37:55.695Z,44.63
2022-10-18T23:41:01.163Z,49.87
2022-10-18T23:44:04.601Z,47.70
2022-10-18T23:47:08.127Z,40.10
2022-10-18T23:50:15.005Z,44.60
2022-10-18T23:53:23.211Z,43.70
2022-10-18T23:56:26.625Z,43.78
2022-10-18T23:59:31.131Z,48.17
